sensor_id;sensor_type;location;lat;lon;timestamp;P1;durP1;ratioP1;P2;durP2;ratioP2
69856;SDS011;57147;53.582;10.112;2023-07-30T00:00:17;6.80;;;6.13;;
69856;SDS011;57147;53.582;10.112;2023-07-30T00:05:23;9.20;;;5.75;;
69856;SDS011;57147;53.582;10.112;2023-07-30T00:10:24;10.77;;;7.38;;
69856;SDS011;57147;53.582;10.112;2023-07-30T00:15:25;6.53;;;5.68;;
69856;SDS011;57147;53.582;10.112;2023-07-30T00:20:30;5.57;;;4.40;;
69856;SDS011;57147;53.582;10.112;2023-07-30T00:25:31;5.53;;;4.63;;
69856;SDS011;57147;53.582;10.112;2023-07-30T00:30:31;5.50;;;4.90;;
69856;SDS011;57147;53.582;10.112;2023-07-30T00:35:34;6.22;;;5.15;;
69856;SDS011;57147;53.582;10.112;2023-07-30T00:40:39;5.70;;;4.32;;
69856;SDS011;57147;53.582;10.112;2023-07-30T00:45:41;7.20;;;5.22;;
69856;SDS011;57147;53.582;10.112;2023-07-30T00:55:47;8.38;;;7.47;;
69856;SDS011;57147;53.582;10.112;2023-07-30T01:00:48;8.77;;;7.78;;
69856;SDS011;57147;53.582;10.112;2023-07-30T01:05:51;7.07;;;5.82;;
69856;SDS011;57147;53.582;10.112;2023-07-30T01:10:51;6.85;;;4.32;;
69856;SDS011;57147;53.582;10.112;2023-07-30T01:15:53;7.18;;;5.35;;
69856;SDS011;57147;53.582;10.112;2023-07-30T01:20:59;5.40;;;3.60;;
69856;SDS011;57147;53.582;10.112;2023-07-30T01:26:01;5.60;;;4.28;;
69856;SDS011;57147;53.582;10.112;2023-07-30T01:31:05;5.18;;;3.45;;
69856;SDS011;57147;53.582;10.112;2023-07-30T01:36:10;5.40;;;4.40;;
69856;SDS011;57147;53.582;10.112;2023-07-30T01:41:15;6.47;;;5.57;;
69856;SDS011;57147;53.582;10.112;2023-07-30T01:46:16;5.32;;;4.60;;
69856;SDS011;57147;53.582;10.112;2023-07-30T01:51:19;6.00;;;3.65;;
69856;SDS011;57147;53.582;10.112;2023-07-30T01:56:20;4.45;;;2.90;;
69856;SDS011;57147;53.582;10.112;2023-07-30T02:01:21;3.88;;;3.45;;
69856;SDS011;57147;53.582;10.112;2023-07-30T02:06:24;4.55;;;3.55;;
69856;SDS011;57147;53.582;10.112;2023-07-30T02:11:25;5.00;;;3.20;;
69856;SDS011;57147;53.582;10.112;2023-07-30T02:16:25;6.57;;;3.55;;
69856;SDS011;57147;53.582;10.112;2023-07-30T02:21:29;4.20;;;3.83;;
69856;SDS011;57147;53.582;10.112;2023-07-30T02:26:29;4.43;;;2.63;;
69856;SDS011;57147;53.582;10.112;2023-07-30T02:31:30;4.68;;;3.38;;
69856;SDS011;57147;53.582;10.112;2023-07-30T02:36:33;4.60;;;3.70;;
69856;SDS011;57147;53.582;10.112;2023-07-30T02:41:34;5.38;;;3.95;;
69856;SDS011;57147;53.582;10.112;2023-07-30T02:46:34;6.15;;;3.78;;
69856;SDS011;57147;53.582;10.112;2023-07-30T02:51:37;5.65;;;4.13;;
69856;SDS011;57147;53.582;10.112;2023-07-30T02:56:38;5.35;;;4.75;;
69856;SDS011;57147;53.582;10.112;2023-07-30T03:01:38;5.47;;;4.03;;
69856;SDS011;57147;53.582;10.112;2023-07-30T03:06:42;7.00;;;4.55;;
69856;SDS011;57147;53.582;10.112;2023-07-30T03:11:42;5.47;;;4.88;;
69856;SDS011;57147;53.582;10.112;2023-07-30T03:16:43;5.45;;;4.50;;
69856;SDS011;57147;53.582;10.112;2023-07-30T03:21:46;5.55;;;4.43;;
69856;SDS011;57147;53.582;10.112;2023-07-30T03:26:47;6.07;;;5.30;;
69856;SDS011;57147;53.582;10.112;2023-07-30T03:31:48;7.57;;;6.90;;
69856;SDS011;57147;53.582;10.112;2023-07-30T03:36:51;7.82;;;4.95;;
69856;SDS011;57147;53.582;10.112;2023-07-30T03:41:52;6.28;;;5.50;;
69856;SDS011;57147;53.582;10.112;2023-07-30T03:46:52;8.48;;;5.25;;
69856;SDS011;57147;53.582;10.112;2023-07-30T03:51:55;7.00;;;6.25;;
69856;SDS011;57147;53.582;10.112;2023-07-30T03:56:58;8.60;;;6.32;;
69856;SDS011;57147;53.582;10.112;2023-07-30T04:01:58;8.73;;;6.43;;
69856;SDS011;57147;53.582;10.112;2023-07-30T04:07:02;7.55;;;6.15;;
69856;SDS011;57147;53.582;10.112;2023-07-30T04:12:03;9.27;;;5.55;;
69856;SDS011;57147;53.582;10.112;2023-07-30T04:17:04;9.98;;;5.80;;
69856;SDS011;57147;53.582;10.112;2023-07-30T04:22:07;8.90;;;6.60;;
69856;SDS011;57147;53.582;10.112;2023-07-30T04:27:08;9.57;;;6.20;;
69856;SDS011;57147;53.582;10.112;2023-07-30T04:32:09;7.43;;;5.70;;
69856;SDS011;57147;53.582;10.112;2023-07-30T04:37:12;6.95;;;5.57;;
69856;SDS011;57147;53.582;10.112;2023-07-30T04:42:12;10.63;;;5.10;;
69856;SDS011;57147;53.582;10.112;2023-07-30T04:47:13;7.10;;;5.75;;
69856;SDS011;57147;53.582;10.112;2023-07-30T04:52:16;9.68;;;6.93;;
69856;SDS011;57147;53.582;10.112;2023-07-30T04:57:17;9.00;;;6.20;;
69856;SDS011;57147;53.582;10.112;2023-07-30T05:02:17;10.88;;;5.88;;
69856;SDS011;57147;53.582;10.112;2023-07-30T05:07:20;8.00;;;6.63;;
69856;SDS011;57147;53.582;10.112;2023-07-30T05:12:21;11.02;;;6.95;;
69856;SDS011;57147;53.582;10.112;2023-07-30T05:17:22;9.10;;;6.65;;
69856;SDS011;57147;53.582;10.112;2023-07-30T05:22:25;9.95;;;4.82;;
69856;SDS011;57147;53.582;10.112;2023-07-30T05:27:26;11.32;;;7.85;;
69856;SDS011;57147;53.582;10.112;2023-07-30T05:32:27;8.25;;;5.20;;
69856;SDS011;57147;53.582;10.112;2023-07-30T05:37:30;9.15;;;5.60;;
69856;SDS011;57147;53.582;10.112;2023-07-30T05:42:30;9.35;;;5.28;;
69856;SDS011;57147;53.582;10.112;2023-07-30T05:47:31;11.45;;;6.28;;
69856;SDS011;57147;53.582;10.112;2023-07-30T05:52:34;9.40;;;5.43;;
69856;SDS011;57147;53.582;10.112;2023-07-30T05:57:35;10.05;;;5.30;;
69856;SDS011;57147;53.582;10.112;2023-07-30T06:02:36;10.90;;;6.45;;
69856;SDS011;57147;53.582;10.112;2023-07-30T06:07:39;10.50;;;4.88;;
69856;SDS011;57147;53.582;10.112;2023-07-30T06:12:40;8.98;;;4.75;;
69856;SDS011;57147;53.582;10.112;2023-07-30T06:17:41;9.65;;;4.47;;
69856;SDS011;57147;53.582;10.112;2023-07-30T06:22:44;14.07;;;5.28;;
69856;SDS011;57147;53.582;10.112;2023-07-30T06:27:44;9.95;;;4.18;;
69856;SDS011;57147;53.582;10.112;2023-07-30T06:32:45;10.60;;;5.30;;
69856;SDS011;57147;53.582;10.112;2023-07-30T06:37:49;10.00;;;5.40;;
69856;SDS011;57147;53.582;10.112;2023-07-30T06:42:50;13.60;;;5.75;;
69856;SDS011;57147;53.582;10.112;2023-07-30T06:47:51;15.27;;;5.72;;
69856;SDS011;57147;53.582;10.112;2023-07-30T06:52:54;13.63;;;6.07;;
69856;SDS011;57147;53.582;10.112;2023-07-30T06:57:54;9.43;;;5.07;;
69856;SDS011;57147;53.582;10.112;2023-07-30T07:02:55;12.60;;;7.53;;
69856;SDS011;57147;53.582;10.112;2023-07-30T07:07:58;16.92;;;7.70;;
69856;SDS011;57147;53.582;10.112;2023-07-30T07:12:59;14.65;;;7.05;;
69856;SDS011;57147;53.582;10.112;2023-07-30T07:17:59;17.25;;;7.97;;
69856;SDS011;57147;53.582;10.112;2023-07-30T07:23:03;13.50;;;7.32;;
69856;SDS011;57147;53.582;10.112;2023-07-30T07:28:03;14.35;;;8.05;;
69856;SDS011;57147;53.582;10.112;2023-07-30T07:33:04;17.13;;;8.48;;
69856;SDS011;57147;53.582;10.112;2023-07-30T07:38:07;15.25;;;8.48;;
69856;SDS011;57147;53.582;10.112;2023-07-30T07:43:08;16.70;;;8.00;;
69856;SDS011;57147;53.582;10.112;2023-07-30T07:48:09;19.80;;;8.43;;
69856;SDS011;57147;53.582;10.112;2023-07-30T07:53:12;20.30;;;6.15;;
69856;SDS011;57147;53.582;10.112;2023-07-30T07:58:12;17.38;;;7.57;;
69856;SDS011;57147;53.582;10.112;2023-07-30T08:03:13;16.98;;;6.95;;
69856;SDS011;57147;53.582;10.112;2023-07-30T08:08:17;15.07;;;6.20;;
69856;SDS011;57147;53.582;10.112;2023-07-30T08:13:17;14.07;;;5.85;;
69856;SDS011;57147;53.582;10.112;2023-07-30T08:18:18;15.40;;;6.47;;
69856;SDS011;57147;53.582;10.112;2023-07-30T08:23:21;15.40;;;6.97;;
69856;SDS011;57147;53.582;10.112;2023-07-30T08:28:21;12.73;;;5.30;;
69856;SDS011;57147;53.582;10.112;2023-07-30T08:33:22;11.13;;;4.03;;
69856;SDS011;57147;53.582;10.112;2023-07-30T08:38:25;14.57;;;5.60;;
69856;SDS011;57147;53.582;10.112;2023-07-30T08:43:26;12.10;;;4.47;;
69856;SDS011;57147;53.582;10.112;2023-07-30T08:48:27;11.63;;;3.75;;
69856;SDS011;57147;53.582;10.112;2023-07-30T08:53:30;11.73;;;4.70;;
69856;SDS011;57147;53.582;10.112;2023-07-30T08:58:32;7.57;;;3.13;;
69856;SDS011;57147;53.582;10.112;2023-07-30T09:03:34;10.68;;;2.95;;
69856;SDS011;57147;53.582;10.112;2023-07-30T09:08:40;10.43;;;2.17;;
69856;SDS011;57147;53.582;10.112;2023-07-30T09:13:41;13.13;;;2.67;;
69856;SDS011;57147;53.582;10.112;2023-07-30T09:18:42;8.82;;;2.92;;
69856;SDS011;57147;53.582;10.112;2023-07-30T09:23:46;9.40;;;2.42;;
69856;SDS011;57147;53.582;10.112;2023-07-30T09:28:47;8.45;;;2.47;;
69856;SDS011;57147;53.582;10.112;2023-07-30T09:33:47;9.68;;;2.85;;
69856;SDS011;57147;53.582;10.112;2023-07-30T09:38:51;11.27;;;3.90;;
69856;SDS011;57147;53.582;10.112;2023-07-30T09:43:57;7.72;;;2.42;;
69856;SDS011;57147;53.582;10.112;2023-07-30T09:48:58;7.95;;;1.92;;
69856;SDS011;57147;53.582;10.112;2023-07-30T09:54:02;9.85;;;2.80;;
69856;SDS011;57147;53.582;10.112;2023-07-30T09:59:03;7.88;;;4.72;;
69856;SDS011;57147;53.582;10.112;2023-07-30T10:04:07;8.80;;;2.13;;
69856;SDS011;57147;53.582;10.112;2023-07-30T10:14:12;8.65;;;3.40;;
69856;SDS011;57147;53.582;10.112;2023-07-30T10:19:14;6.47;;;2.03;;
69856;SDS011;57147;53.582;10.112;2023-07-30T10:24:18;6.93;;;2.47;;
69856;SDS011;57147;53.582;10.112;2023-07-30T10:29:19;8.85;;;2.20;;
69856;SDS011;57147;53.582;10.112;2023-07-30T10:34:20;8.60;;;2.25;;
69856;SDS011;57147;53.582;10.112;2023-07-30T10:39:25;8.90;;;2.40;;
69856;SDS011;57147;53.582;10.112;2023-07-30T10:44:27;9.27;;;2.72;;
69856;SDS011;57147;53.582;10.112;2023-07-30T10:49:29;6.95;;;1.90;;
69856;SDS011;57147;53.582;10.112;2023-07-30T10:54:38;7.32;;;1.80;;
69856;SDS011;57147;53.582;10.112;2023-07-30T10:59:38;7.35;;;1.45;;
69856;SDS011;57147;53.582;10.112;2023-07-30T11:04:41;7.88;;;1.52;;
69856;SDS011;57147;53.582;10.112;2023-07-30T11:09:44;7.07;;;3.50;;
69856;SDS011;57147;53.582;10.112;2023-07-30T11:14:45;4.82;;;1.83;;
69856;SDS011;57147;53.582;10.112;2023-07-30T11:19:45;7.38;;;3.15;;
69856;SDS011;57147;53.582;10.112;2023-07-30T11:24:49;8.48;;;2.58;;
69856;SDS011;57147;53.582;10.112;2023-07-30T11:29:53;6.20;;;2.25;;
69856;SDS011;57147;53.582;10.112;2023-07-30T11:34:55;7.72;;;2.33;;
69856;SDS011;57147;53.582;10.112;2023-07-30T11:39:59;6.90;;;2.15;;
69856;SDS011;57147;53.582;10.112;2023-07-30T11:50:19;6.68;;;1.38;;
69856;SDS011;57147;53.582;10.112;2023-07-30T11:55:23;6.70;;;2.97;;
69856;SDS011;57147;53.582;10.112;2023-07-30T12:00:24;3.85;;;1.02;;
69856;SDS011;57147;53.582;10.112;2023-07-30T12:05:31;5.32;;;1.80;;
69856;SDS011;57147;53.582;10.112;2023-07-30T12:10:44;6.47;;;2.65;;
69856;SDS011;57147;53.582;10.112;2023-07-30T12:15:50;6.20;;;1.50;;
69856;SDS011;57147;53.582;10.112;2023-07-30T12:20:51;5.75;;;1.30;;
69856;SDS011;57147;53.582;10.112;2023-07-30T12:25:56;3.47;;;1.15;;
69856;SDS011;57147;53.582;10.112;2023-07-30T12:30:56;4.05;;;0.80;;
69856;SDS011;57147;53.582;10.112;2023-07-30T12:35:57;5.28;;;1.02;;
69856;SDS011;57147;53.582;10.112;2023-07-30T12:41:00;3.80;;;0.95;;
69856;SDS011;57147;53.582;10.112;2023-07-30T12:46:01;5.90;;;1.58;;
69856;SDS011;57147;53.582;10.112;2023-07-30T12:51:01;6.10;;;1.92;;
69856;SDS011;57147;53.582;10.112;2023-07-30T12:56:05;4.20;;;1.40;;
69856;SDS011;57147;53.582;10.112;2023-07-30T13:01:05;6.55;;;1.35;;
69856;SDS011;57147;53.582;10.112;2023-07-30T13:06:06;3.75;;;1.45;;
69856;SDS011;57147;53.582;10.112;2023-07-30T13:11:09;4.53;;;1.75;;
69856;SDS011;57147;53.582;10.112;2023-07-30T13:16:10;5.53;;;1.45;;
69856;SDS011;57147;53.582;10.112;2023-07-30T13:21:10;5.25;;;2.22;;
69856;SDS011;57147;53.582;10.112;2023-07-30T13:26:14;3.35;;;0.68;;
69856;SDS011;57147;53.582;10.112;2023-07-30T13:31:14;3.90;;;1.30;;
69856;SDS011;57147;53.582;10.112;2023-07-30T13:36:15;5.13;;;1.35;;
69856;SDS011;57147;53.582;10.112;2023-07-30T13:41:18;4.82;;;1.60;;
69856;SDS011;57147;53.582;10.112;2023-07-30T13:51:29;4.63;;;1.65;;
69856;SDS011;57147;53.582;10.112;2023-07-30T13:56:32;2.47;;;1.23;;
69856;SDS011;57147;53.582;10.112;2023-07-30T14:01:33;5.70;;;2.03;;
69856;SDS011;57147;53.582;10.112;2023-07-30T14:06:34;4.18;;;1.27;;
69856;SDS011;57147;53.582;10.112;2023-07-30T14:11:37;2.70;;;1.45;;
69856;SDS011;57147;53.582;10.112;2023-07-30T14:16:37;4.07;;;1.23;;
69856;SDS011;57147;53.582;10.112;2023-07-30T14:21:38;5.45;;;2.10;;
69856;SDS011;57147;53.582;10.112;2023-07-30T14:26:41;5.70;;;0.77;;
69856;SDS011;57147;53.582;10.112;2023-07-30T14:31:42;3.92;;;1.02;;
69856;SDS011;57147;53.582;10.112;2023-07-30T14:36:43;5.20;;;1.73;;
69856;SDS011;57147;53.582;10.112;2023-07-30T14:41:46;2.38;;;1.25;;
69856;SDS011;57147;53.582;10.112;2023-07-30T14:46:47;2.85;;;0.95;;
69856;SDS011;57147;53.582;10.112;2023-07-30T14:51:47;3.58;;;1.20;;
69856;SDS011;57147;53.582;10.112;2023-07-30T14:56:50;2.83;;;0.95;;
69856;SDS011;57147;53.582;10.112;2023-07-30T15:01:51;3.53;;;1.15;;
69856;SDS011;57147;53.582;10.112;2023-07-30T15:06:52;3.97;;;0.98;;
69856;SDS011;57147;53.582;10.112;2023-07-30T15:11:55;4.63;;;0.95;;
69856;SDS011;57147;53.582;10.112;2023-07-30T15:16:57;3.42;;;1.10;;
69856;SDS011;57147;53.582;10.112;2023-07-30T15:21:57;3.70;;;0.70;;
69856;SDS011;57147;53.582;10.112;2023-07-30T15:27:01;4.65;;;1.23;;
69856;SDS011;57147;53.582;10.112;2023-07-30T15:32:01;4.05;;;1.25;;
69856;SDS011;57147;53.582;10.112;2023-07-30T15:37:03;3.30;;;0.65;;
69856;SDS011;57147;53.582;10.112;2023-07-30T15:42:06;4.90;;;1.73;;
69856;SDS011;57147;53.582;10.112;2023-07-30T15:47:07;5.20;;;1.55;;
69856;SDS011;57147;53.582;10.112;2023-07-30T15:52:08;4.07;;;2.17;;
69856;SDS011;57147;53.582;10.112;2023-07-30T15:57:11;4.53;;;0.98;;
69856;SDS011;57147;53.582;10.112;2023-07-30T16:02:11;4.40;;;1.27;;
69856;SDS011;57147;53.582;10.112;2023-07-30T16:07:12;6.65;;;1.42;;
69856;SDS011;57147;53.582;10.112;2023-07-30T16:12:15;3.75;;;1.08;;
69856;SDS011;57147;53.582;10.112;2023-07-30T16:17:16;6.93;;;1.75;;
69856;SDS011;57147;53.582;10.112;2023-07-30T16:22:16;5.30;;;1.83;;
69856;SDS011;57147;53.582;10.112;2023-07-30T16:27:20;4.50;;;2.05;;
69856;SDS011;57147;53.582;10.112;2023-07-30T16:32:20;3.22;;;1.00;;
69856;SDS011;57147;53.582;10.112;2023-07-30T16:37:21;3.00;;;1.15;;
69856;SDS011;57147;53.582;10.112;2023-07-30T16:42:25;5.50;;;3.22;;
69856;SDS011;57147;53.582;10.112;2023-07-30T16:47:25;3.45;;;1.13;;
69856;SDS011;57147;53.582;10.112;2023-07-30T16:52:26;3.47;;;1.08;;
69856;SDS011;57147;53.582;10.112;2023-07-30T16:57:29;3.30;;;1.63;;
69856;SDS011;57147;53.582;10.112;2023-07-30T17:02:30;2.13;;;0.85;;
69856;SDS011;57147;53.582;10.112;2023-07-30T17:07:30;3.65;;;1.02;;
69856;SDS011;57147;53.582;10.112;2023-07-30T17:12:33;3.67;;;0.95;;
69856;SDS011;57147;53.582;10.112;2023-07-30T17:17:34;3.55;;;1.15;;
69856;SDS011;57147;53.582;10.112;2023-07-30T17:22:35;3.75;;;0.77;;
69856;SDS011;57147;53.582;10.112;2023-07-30T17:27:38;4.43;;;1.77;;
69856;SDS011;57147;53.582;10.112;2023-07-30T17:32:39;4.80;;;1.10;;
69856;SDS011;57147;53.582;10.112;2023-07-30T17:37:39;6.85;;;0.93;;
69856;SDS011;57147;53.582;10.112;2023-07-30T17:42:43;3.78;;;0.63;;
69856;SDS011;57147;53.582;10.112;2023-07-30T17:47:43;2.40;;;1.25;;
69856;SDS011;57147;53.582;10.112;2023-07-30T17:52:44;3.83;;;1.50;;
69856;SDS011;57147;53.582;10.112;2023-07-30T17:57:47;5.28;;;2.28;;
69856;SDS011;57147;53.582;10.112;2023-07-30T18:02:48;2.80;;;1.42;;
69856;SDS011;57147;53.582;10.112;2023-07-30T18:07:49;3.95;;;1.33;;
69856;SDS011;57147;53.582;10.112;2023-07-30T18:12:52;4.32;;;1.15;;
69856;SDS011;57147;53.582;10.112;2023-07-30T18:17:52;2.90;;;1.13;;
69856;SDS011;57147;53.582;10.112;2023-07-30T18:22:53;6.15;;;2.60;;
69856;SDS011;57147;53.582;10.112;2023-07-30T18:27:56;2.42;;;1.00;;
69856;SDS011;57147;53.582;10.112;2023-07-30T18:32:57;3.33;;;1.98;;
69856;SDS011;57147;53.582;10.112;2023-07-30T18:37:58;4.88;;;1.40;;
69856;SDS011;57147;53.582;10.112;2023-07-30T18:43:01;4.40;;;0.98;;
69856;SDS011;57147;53.582;10.112;2023-07-30T18:48:05;3.00;;;1.85;;
69856;SDS011;57147;53.582;10.112;2023-07-30T18:53:06;4.18;;;1.30;;
69856;SDS011;57147;53.582;10.112;2023-07-30T18:58:12;4.60;;;2.47;;
69856;SDS011;57147;53.582;10.112;2023-07-30T19:03:13;4.35;;;1.48;;
69856;SDS011;57147;53.582;10.112;2023-07-30T19:08:14;3.30;;;1.25;;
69856;SDS011;57147;53.582;10.112;2023-07-30T19:13:17;3.17;;;1.30;;
69856;SDS011;57147;53.582;10.112;2023-07-30T19:18:17;2.47;;;2.03;;
69856;SDS011;57147;53.582;10.112;2023-07-30T19:23:18;6.05;;;2.60;;
69856;SDS011;57147;53.582;10.112;2023-07-30T19:28:21;4.07;;;1.95;;
69856;SDS011;57147;53.582;10.112;2023-07-30T19:33:22;3.78;;;1.63;;
69856;SDS011;57147;53.582;10.112;2023-07-30T19:38:22;4.88;;;1.42;;
69856;SDS011;57147;53.582;10.112;2023-07-30T19:43:26;5.88;;;1.60;;
69856;SDS011;57147;53.582;10.112;2023-07-30T19:48:27;5.45;;;2.42;;
69856;SDS011;57147;53.582;10.112;2023-07-30T19:53:28;5.68;;;1.30;;
69856;SDS011;57147;53.582;10.112;2023-07-30T19:58:31;3.55;;;1.55;;
69856;SDS011;57147;53.582;10.112;2023-07-30T20:03:32;6.40;;;2.13;;
69856;SDS011;57147;53.582;10.112;2023-07-30T20:08:34;5.80;;;1.20;;
69856;SDS011;57147;53.582;10.112;2023-07-30T20:13:38;3.78;;;1.42;;
69856;SDS011;57147;53.582;10.112;2023-07-30T20:18:38;4.72;;;1.80;;
69856;SDS011;57147;53.582;10.112;2023-07-30T20:23:39;3.13;;;1.83;;
69856;SDS011;57147;53.582;10.112;2023-07-30T20:28:43;4.32;;;1.25;;
69856;SDS011;57147;53.582;10.112;2023-07-30T20:33:44;6.10;;;3.90;;
69856;SDS011;57147;53.582;10.112;2023-07-30T20:38:45;7.80;;;2.90;;
69856;SDS011;57147;53.582;10.112;2023-07-30T20:43:48;6.63;;;2.22;;
69856;SDS011;57147;53.582;10.112;2023-07-30T20:48:49;6.93;;;2.63;;
69856;SDS011;57147;53.582;10.112;2023-07-30T20:53:49;4.45;;;1.83;;
69856;SDS011;57147;53.582;10.112;2023-07-30T20:58:52;6.60;;;2.33;;
69856;SDS011;57147;53.582;10.112;2023-07-30T21:03:53;2.50;;;1.08;;
69856;SDS011;57147;53.582;10.112;2023-07-30T21:08:54;4.22;;;1.55;;
69856;SDS011;57147;53.582;10.112;2023-07-30T21:13:57;4.88;;;1.00;;
69856;SDS011;57147;53.582;10.112;2023-07-30T21:18:57;3.53;;;0.63;;
69856;SDS011;57147;53.582;10.112;2023-07-30T21:23:58;2.40;;;2.08;;
69856;SDS011;57147;53.582;10.112;2023-07-30T21:29:03;4.07;;;1.23;;
69856;SDS011;57147;53.582;10.112;2023-07-30T21:34:07;3.70;;;1.35;;
69856;SDS011;57147;53.582;10.112;2023-07-30T21:39:08;2.65;;;1.13;;
69856;SDS011;57147;53.582;10.112;2023-07-30T21:44:11;4.00;;;1.30;;
69856;SDS011;57147;53.582;10.112;2023-07-30T21:49:14;6.90;;;1.55;;
69856;SDS011;57147;53.582;10.112;2023-07-30T21:54:14;2.75;;;0.63;;
69856;SDS011;57147;53.582;10.112;2023-07-30T21:59:17;2.55;;;1.08;;
69856;SDS011;57147;53.582;10.112;2023-07-30T22:04:18;5.75;;;2.45;;
69856;SDS011;57147;53.582;10.112;2023-07-30T22:09:19;6.75;;;2.40;;
69856;SDS011;57147;53.582;10.112;2023-07-30T22:14:22;4.38;;;2.20;;
69856;SDS011;57147;53.582;10.112;2023-07-30T22:19:23;3.97;;;1.60;;
69856;SDS011;57147;53.582;10.112;2023-07-30T22:24:23;3.88;;;2.50;;
69856;SDS011;57147;53.582;10.112;2023-07-30T22:29:26;6.18;;;2.55;;
69856;SDS011;57147;53.582;10.112;2023-07-30T22:34:27;7.20;;;4.82;;
69856;SDS011;57147;53.582;10.112;2023-07-30T22:39:28;6.40;;;2.42;;
69856;SDS011;57147;53.582;10.112;2023-07-30T22:44:31;3.70;;;2.42;;
69856;SDS011;57147;53.582;10.112;2023-07-30T22:49:31;5.32;;;1.95;;
69856;SDS011;57147;53.582;10.112;2023-07-30T22:54:32;4.38;;;1.60;;
69856;SDS011;57147;53.582;10.112;2023-07-30T22:59:35;4.47;;;1.35;;
69856;SDS011;57147;53.582;10.112;2023-07-30T23:04:36;3.92;;;1.73;;
69856;SDS011;57147;53.582;10.112;2023-07-30T23:09:36;4.35;;;1.92;;
69856;SDS011;57147;53.582;10.112;2023-07-30T23:14:40;2.97;;;1.42;;
69856;SDS011;57147;53.582;10.112;2023-07-30T23:19:40;4.20;;;2.53;;
69856;SDS011;57147;53.582;10.112;2023-07-30T23:24:41;3.85;;;1.63;;
69856;SDS011;57147;53.582;10.112;2023-07-30T23:29:45;3.60;;;1.67;;
69856;SDS011;57147;53.582;10.112;2023-07-30T23:39:49;5.35;;;1.20;;
69856;SDS011;57147;53.582;10.112;2023-07-30T23:44:53;4.22;;;1.17;;
69856;SDS011;57147;53.582;10.112;2023-07-30T23:49:53;3.00;;;1.33;;
69856;SDS011;57147;53.582;10.112;2023-07-30T23:54:54;2.67;;;1.23;;
69856;SDS011;57147;53.582;10.112;2023-07-30T23:59:57;5.60;;;1.40;;
